Terminal Aerodrome Forecast
Issued by NWS

Home | Current Version | Previous Version | Graphics & Text | Print | Product List | Glossary On
Versions: 1 2 3 4 5 6 7 8 9 10 11 12 13 14 15 16 17 18 19 20 21 22
000
FTUS43 KFGF 180534 AAC
TAFBJI
TAF AMD
KBJI 180534Z 1806/1906 21007KT 5SM BR BKN004
      TEMPO 1807/1810 BKN040
     FM181000 20008KT P6SM OVC070
     FM181500 23006KT P6SM OVC090
     FM182000 22006KT 5SM -SN OVC020
     FM182300 25009KT P6SM OVC010
     FM190400 28009KT P6SM BKN010=

USA.gov is the U.S. government's official web portal to all federal, state and local government web resources and services.